createdAt,value
2018-07-03T00:01:29.427Z,49.50
2018-07-03T00:03:57.833Z,48.90
2018-07-03T00:06:26.243Z,49.00
2018-07-03T00:08:54.645Z,48.90
2018-07-03T00:11:23.041Z,48.90
2018-07-03T00:13:51.458Z,48.90
2018-07-03T00:16:25.011Z,48.80
2018-07-03T00:18:53.415Z,48.80
2018-07-03T00:21:21.821Z,48.80
2018-07-03T00:23:50.245Z,48.80
2018-07-03T00:26:19.013Z,48.70
2018-07-03T00:28:47.425Z,48.80
2018-07-03T00:31:15.837Z,49.00
2018-07-03T00:33:44.231Z,49.10
2018-07-03T00:36:12.636Z,49.20
2018-07-03T00:38:41.055Z,49.20
2018-07-03T00:41:09.717Z,49.30
2018-07-03T00:43:38.134Z,49.50
2018-07-03T00:46:06.558Z,49.70
2018-07-03T00:48:35.004Z,50.00
2018-07-03T00:53:32.454Z,50.40
2018-07-03T00:56:00.870Z,50.70
2018-07-03T00:58:29.294Z,50.90
2018-07-03T01:00:58.231Z,51.00
2018-07-03T01:03:26.648Z,51.30
2018-07-03T01:05:55.060Z,51.50
2018-07-03T01:08:23.476Z,51.70
2018-07-03T01:10:51.998Z,51.90
2018-07-03T01:13:20.426Z,52.10
2018-07-03T01:15:48.872Z,52.20
2018-07-03T01:18:17.276Z,52.30
2018-07-03T01:20:45.684Z,52.50
2018-07-03T01:23:14.102Z,52.60
2018-07-03T01:25:42.498Z,52.60
2018-07-03T01:28:10.888Z,52.70
2018-07-03T01:30:39.366Z,53.10
2018-07-03T01:33:08.476Z,53.20
2018-07-03T01:35:36.892Z,53.30
2018-07-03T01:38:05.292Z,53.30
2018-07-03T01:40:33.787Z,53.50
2018-07-03T01:43:02.211Z,53.60
2018-07-03T01:45:30.619Z,53.80
2018-07-03T01:47:59.403Z,53.80
2018-07-03T01:50:27.833Z,54.00
2018-07-03T01:52:56.243Z,54.10
2018-07-03T01:55:24.650Z,54.40
2018-07-03T01:57:53.311Z,54.30
2018-07-03T02:00:21.741Z,54.50
2018-07-03T02:02:50.593Z,54.50
2018-07-03T02:05:19.022Z,54.60
2018-07-03T02:07:47.585Z,54.80
2018-07-03T02:10:16.236Z,55.00
2018-07-03T02:12:44.643Z,55.20
2018-07-03T02:15:13.037Z,55.30
2018-07-03T02:17:41.439Z,55.40
2018-07-03T02:20:09.847Z,55.60
2018-07-03T02:22:38.267Z,55.70
2018-07-03T02:25:06.678Z,56.00
2018-07-03T02:27:35.087Z,55.90
2018-07-03T02:30:03.758Z,56.20
2018-07-03T02:32:32.146Z,56.40
2018-07-03T02:35:00.546Z,56.50
2018-07-03T02:37:29.520Z,56.70
2018-07-03T02:39:58.386Z,57.00
2018-07-03T02:42:27.042Z,57.30
2018-07-03T02:44:55.998Z,57.50
2018-07-03T02:47:24.415Z,57.60
2018-07-03T02:49:52.842Z,57.70
2018-07-03T02:52:21.260Z,57.80
2018-07-03T02:54:49.942Z,58.50
2018-07-03T02:57:18.346Z,58.10
2018-07-03T02:59:47.391Z,58.30
2018-07-03T03:02:17.040Z,58.50
2018-07-03T03:04:45.479Z,58.50
2018-07-03T03:07:13.913Z,58.60
2018-07-03T03:09:42.331Z,58.70
2018-07-03T03:12:11.327Z,58.90
2018-07-03T03:14:39.742Z,59.00
2018-07-03T03:17:08.137Z,59.20
2018-07-03T03:19:36.532Z,59.40
2018-07-03T03:22:04.927Z,59.50
2018-07-03T03:24:33.329Z,59.50
2018-07-03T03:27:01.738Z,59.50
2018-07-03T03:29:30.173Z,59.90
2018-07-03T03:31:58.595Z,59.90
2018-07-03T03:34:26.997Z,60.10
2018-07-03T03:36:56.147Z,60.30
2018-07-03T03:39:24.537Z,60.60
2018-07-03T03:41:53.111Z,60.70
2018-07-03T03:44:21.523Z,61.00
2018-07-03T03:46:49.935Z,61.10
2018-07-03T03:49:18.334Z,61.30
2018-07-03T03:51:46.766Z,61.50
2018-07-03T03:54:15.184Z,61.90
2018-07-03T03:56:43.852Z,62.00
2018-07-03T03:59:12.498Z,62.90
2018-07-03T04:01:41.340Z,62.10
2018-07-03T04:04:09.738Z,62.10
2018-07-03T04:06:38.138Z,62.20
2018-07-03T04:09:09.876Z,62.20
2018-07-03T04:11:38.302Z,62.40
2018-07-03T04:14:07.348Z,62.50
2018-07-03T04:16:35.777Z,62.60
2018-07-03T04:19:04.184Z,62.80
2018-07-03T04:21:32.590Z,62.90
2018-07-03T04:24:00.997Z,63.00
2018-07-03T04:26:29.388Z,62.90
2018-07-03T04:28:57.795Z,63.00
2018-07-03T04:31:26.190Z,63.00
2018-07-03T04:33:54.609Z,63.00
2018-07-03T04:36:23.113Z,63.00
2018-07-03T04:38:51.533Z,63.00
2018-07-03T04:41:20.128Z,63.20
2018-07-03T04:43:48.539Z,63.40
2018-07-03T04:46:17.082Z,63.60
2018-07-03T04:48:45.515Z,63.40
2018-07-03T04:51:13.915Z,63.30
2018-07-03T04:53:42.320Z,63.30
2018-07-03T04:56:11.731Z,63.20
2018-07-03T04:58:40.123Z,63.20
2018-07-03T05:01:08.545Z,63.20
2018-07-03T05:03:36.987Z,63.10
2018-07-03T05:06:05.401Z,63.40
2018-07-03T05:08:33.829Z,63.20
2018-07-03T05:11:02.255Z,62.90
2018-07-03T05:13:30.653Z,62.80
2018-07-03T05:15:59.067Z,62.80
2018-07-03T05:18:27.477Z,62.80
2018-07-03T05:20:55.881Z,62.70
2018-07-03T05:23:24.264Z,62.70
2018-07-03T05:25:57.531Z,62.80
2018-07-03T05:28:25.966Z,62.50
2018-07-03T05:30:54.502Z,62.20
2018-07-03T05:33:23.000Z,62.00
2018-07-03T05:35:51.385Z,61.80
2018-07-03T05:38:19.778Z,61.40
2018-07-03T05:40:48.198Z,61.40
2018-07-03T05:43:16.643Z,61.10
2018-07-03T05:45:45.059Z,60.40
2018-07-03T05:48:13.481Z,60.30
2018-07-03T05:50:41.880Z,59.70
2018-07-03T05:53:10.297Z,59.70
2018-07-03T05:55:38.701Z,59.40
2018-07-03T05:58:07.112Z,59.30
2018-07-03T06:00:35.513Z,58.80
2018-07-03T06:03:03.926Z,58.20
2018-07-03T06:05:32.611Z,57.70
2018-07-03T06:08:01.024Z,57.90
2018-07-03T06:10:29.701Z,57.90
2018-07-03T06:12:58.208Z,58.00
2018-07-03T06:15:26.596Z,57.10
2018-07-03T06:17:55.007Z,57.00
2018-07-03T06:20:23.489Z,57.10
2018-07-03T06:22:51.990Z,56.60
2018-07-03T06:25:20.353Z,55.40
2018-07-03T06:27:48.782Z,54.70
2018-07-03T06:30:17.216Z,53.90
2018-07-03T06:32:45.627Z,53.10
2018-07-03T06:35:14.030Z,52.60
2018-07-03T06:37:42.451Z,52.70
2018-07-03T06:40:10.852Z,52.70
2018-07-03T06:42:39.244Z,52.70
2018-07-03T06:45:08.422Z,52.40
2018-07-03T06:47:36.852Z,52.70
2018-07-03T06:50:06.102Z,52.90
2018-07-03T06:52:34.518Z,52.80
2018-07-03T06:55:02.957Z,51.80
2018-07-03T06:57:31.390Z,51.60
2018-07-03T06:59:59.794Z,51.10
2018-07-03T07:02:28.230Z,50.70
2018-07-03T07:04:56.696Z,50.90
2018-07-03T07:07:25.284Z,51.10
2018-07-03T07:09:54.143Z,51.10
2018-07-03T07:12:22.542Z,50.30
2018-07-03T07:14:51.121Z,50.70
2018-07-03T07:17:19.539Z,50.50
2018-07-03T07:19:47.960Z,50.60
2018-07-03T07:22:16.387Z,50.90
2018-07-03T07:24:45.017Z,50.70
2018-07-03T07:27:14.049Z,50.00
2018-07-03T07:29:42.483Z,49.60
2018-07-03T07:32:10.972Z,49.60
2018-07-03T07:34:39.397Z,49.30
2018-07-03T07:37:07.941Z,49.10
2018-07-03T07:39:36.357Z,49.00
2018-07-03T07:42:04.761Z,48.40
2018-07-03T07:44:33.509Z,48.30
2018-07-03T07:47:01.922Z,47.90
2018-07-03T07:49:30.349Z,48.00
2018-07-03T07:51:59.413Z,48.40
2018-07-03T07:54:27.883Z,48.60
2018-07-03T07:56:56.327Z,48.40
2018-07-03T07:59:24.837Z,48.00
2018-07-03T08:01:53.281Z,47.40
2018-07-03T08:04:21.731Z,47.30
2018-07-03T08:06:50.382Z,47.40
2018-07-03T08:09:18.781Z,47.50
2018-07-03T08:11:47.373Z,46.80
2018-07-03T08:14:15.843Z,46.70
2018-07-03T08:16:45.076Z,46.50
2018-07-03T08:19:13.554Z,46.40
2018-07-03T08:21:41.971Z,46.00
2018-07-03T08:24:10.383Z,46.00
2018-07-03T08:26:38.810Z,46.00
2018-07-03T08:29:07.206Z,45.30
2018-07-03T08:31:35.628Z,45.20
2018-07-03T08:34:04.107Z,44.90
2018-07-03T08:36:32.450Z,44.90
2018-07-03T08:39:00.860Z,44.90
2018-07-03T08:41:29.262Z,44.80
2018-07-03T08:43:57.677Z,44.50
2018-07-03T08:46:26.072Z,44.20
2018-07-03T08:48:54.621Z,44.20
2018-07-03T08:51:23.084Z,44.10
2018-07-03T08:53:51.600Z,44.20
2018-07-03T08:56:21.092Z,44.10
2018-07-03T08:58:49.492Z,43.80
2018-07-03T09:01:17.910Z,43.90
2018-07-03T09:03:46.337Z,43.90
2018-07-03T09:06:14.790Z,43.40
2018-07-03T09:08:43.990Z,43.10
2018-07-03T09:11:12.896Z,43.40
2018-07-03T09:13:41.897Z,43.00
2018-07-03T09:16:10.552Z,42.40
2018-07-03T09:18:38.966Z,41.70
2018-07-03T09:21:07.396Z,42.00
2018-07-03T09:23:37.979Z,42.30
2018-07-03T09:26:06.637Z,42.70
2018-07-03T09:28:37.606Z,43.30
2018-07-03T09:31:06.612Z,42.30
2018-07-03T09:33:35.035Z,41.60
2018-07-03T09:36:03.547Z,41.40
2018-07-03T09:38:32.549Z,41.20
2018-07-03T09:41:01.032Z,41.10
2018-07-03T09:43:29.461Z,40.60
2018-07-03T09:45:57.889Z,41.00
2018-07-03T09:48:26.309Z,40.90
2018-07-03T09:50:54.755Z,40.80
2018-07-03T09:53:23.525Z,40.30
2018-07-03T09:55:51.937Z,40.10
2018-07-03T09:58:20.331Z,40.50
2018-07-03T10:00:54.769Z,40.90
2018-07-03T10:03:24.487Z,40.60
2018-07-03T10:05:52.930Z,40.30
2018-07-03T10:08:21.341Z,39.20
2018-07-03T10:10:49.759Z,38.80
2018-07-03T10:13:18.197Z,38.90
2018-07-03T10:15:46.616Z,38.60
2018-07-03T10:18:15.058Z,38.20
2018-07-03T10:20:43.474Z,38.70
2018-07-03T10:23:11.936Z,39.10
2018-07-03T10:25:40.342Z,38.90
2018-07-03T10:28:09.224Z,39.00
2018-07-03T10:30:37.684Z,39.20
2018-07-03T10:33:06.108Z,39.20
2018-07-03T10:35:34.554Z,38.40
2018-07-03T10:38:02.997Z,38.20
2018-07-03T10:40:31.430Z,38.40
2018-07-03T10:42:59.846Z,38.00
2018-07-03T10:45:28.265Z,37.60
2018-07-03T10:47:56.675Z,37.70
2018-07-03T10:50:25.090Z,37.70
2018-07-03T10:52:53.639Z,37.80
2018-07-03T10:55:22.065Z,37.40
2018-07-03T10:57:50.996Z,37.40
2018-07-03T11:00:19.405Z,37.90
2018-07-03T11:02:47.819Z,37.30
2018-07-03T11:05:16.240Z,37.20
2018-07-03T11:07:45.064Z,37.30
2018-07-03T11:10:13.519Z,36.60
2018-07-03T11:12:41.948Z,36.60
2018-07-03T11:15:10.863Z,36.60
2018-07-03T11:17:39.912Z,36.10
2018-07-03T11:20:08.723Z,35.50
2018-07-03T11:22:37.452Z,36.10
2018-07-03T11:25:05.854Z,36.30
2018-07-03T11:27:34.258Z,35.90
2018-07-03T11:30:02.666Z,34.70
2018-07-03T11:32:31.444Z,34.60
2018-07-03T11:34:59.946Z,34.50
2018-07-03T11:37:28.932Z,34.70
2018-07-03T11:39:57.398Z,34.80
2018-07-03T11:42:26.001Z,35.30
2018-07-03T11:44:55.870Z,35.40
2018-07-03T11:47:25.370Z,35.70
2018-07-03T11:49:53.814Z,35.60
2018-07-03T11:52:22.236Z,35.40
2018-07-03T11:54:51.120Z,35.00
2018-07-03T11:57:19.554Z,35.00
2018-07-03T11:59:47.995Z,35.00
2018-07-03T12:02:16.432Z,35.30
2018-07-03T12:04:45.291Z,35.50
2018-07-03T12:07:13.716Z,35.60
2018-07-03T12:09:42.164Z,35.20
2018-07-03T12:12:10.637Z,35.20
2018-07-03T12:14:39.068Z,35.60
2018-07-03T12:17:07.489Z,36.00
2018-07-03T12:19:35.943Z,35.80
2018-07-03T12:22:04.594Z,35.10
2018-07-03T12:24:33.105Z,34.50
2018-07-03T12:27:01.529Z,34.20
2018-07-03T12:29:30.067Z,34.30
2018-07-03T12:31:58.503Z,34.30
2018-07-03T12:34:27.304Z,34.00
2018-07-03T12:36:56.011Z,33.90
2018-07-03T12:39:24.443Z,33.30
2018-07-03T12:41:53.405Z,32.90
2018-07-03T12:44:22.330Z,32.80
2018-07-03T12:46:50.991Z,32.90
2018-07-03T12:49:19.996Z,32.60
2018-07-03T12:51:48.411Z,32.40
2018-07-03T12:54:16.843Z,33.10
2018-07-03T12:56:45.791Z,32.80
2018-07-03T12:59:14.207Z,32.10
2018-07-03T13:01:42.613Z,32.00
2018-07-03T13:04:11.417Z,32.30
2018-07-03T13:06:40.223Z,32.20
2018-07-03T13:09:11.339Z,31.20
2018-07-03T13:11:40.207Z,31.30
2018-07-03T13:14:08.608Z,31.40
2018-07-03T13:16:37.317Z,31.50
2018-07-03T13:19:05.761Z,31.50
2018-07-03T13:21:34.231Z,32.00
2018-07-03T13:24:02.643Z,32.10
2018-07-03T13:26:31.093Z,32.50
2018-07-03T13:28:59.794Z,32.00
2018-07-03T13:31:28.727Z,32.10
2018-07-03T13:33:57.117Z,32.00
2018-07-03T13:36:26.024Z,31.60
2018-07-03T13:38:54.385Z,31.90
2018-07-03T13:41:22.986Z,32.00
2018-07-03T13:43:51.687Z,32.10
2018-07-03T13:46:20.102Z,31.80
2018-07-03T13:48:48.512Z,31.20
2018-07-03T13:51:17.427Z,30.90
2018-07-03T13:53:45.831Z,31.60
2018-07-03T13:56:14.226Z,31.60
2018-07-03T14:01:10.766Z,32.30
2018-07-03T14:03:39.184Z,31.70
2018-07-03T14:06:07.832Z,31.60
2018-07-03T14:08:36.250Z,31.50
2018-07-03T14:11:04.656Z,32.10
2018-07-03T14:13:33.084Z,32.50
2018-07-03T14:16:01.513Z,31.70
2018-07-03T14:18:30.361Z,31.60
2018-07-03T14:20:59.915Z,31.40
2018-07-03T14:23:29.837Z,31.40
2018-07-03T14:25:58.967Z,32.00
2018-07-03T14:28:27.364Z,31.50
2018-07-03T14:31:00.624Z,31.30
2018-07-03T14:33:29.512Z,31.00
2018-07-03T14:35:58.856Z,30.80
2018-07-03T14:38:27.362Z,31.20
2018-07-03T14:40:55.782Z,31.10
2018-07-03T14:43:24.186Z,31.30
2018-07-03T14:45:52.861Z,31.90
2018-07-03T14:48:21.281Z,31.40
2018-07-03T14:50:49.691Z,32.00
2018-07-03T14:53:18.157Z,31.90
2018-07-03T14:55:46.683Z,32.20
2018-07-03T14:58:15.113Z,32.40
2018-07-03T15:00:43.612Z,32.50
2018-07-03T15:03:12.046Z,32.90
2018-07-03T15:05:40.711Z,32.80
2018-07-03T15:08:09.112Z,33.60
2018-07-03T15:10:37.547Z,33.70
2018-07-03T15:13:06.674Z,33.80
2018-07-03T15:15:35.517Z,33.70
2018-07-03T15:18:03.936Z,34.10
2018-07-03T15:20:32.340Z,34.30
2018-07-03T15:23:00.974Z,34.00
2018-07-03T15:25:29.368Z,34.30
2018-07-03T15:27:57.762Z,34.00
2018-07-03T15:30:26.150Z,34.70
2018-07-03T15:32:54.568Z,34.00
2018-07-03T15:35:23.217Z,34.20
2018-07-03T15:37:51.944Z,33.80
2018-07-03T15:40:20.388Z,36.60
2018-07-03T15:42:48.852Z,38.60
2018-07-03T15:45:17.334Z,39.10
2018-07-03T15:47:45.742Z,39.30
2018-07-03T15:50:15.266Z,39.60
2018-07-03T15:52:43.670Z,39.90
2018-07-03T15:55:12.596Z,40.00
2018-07-03T15:57:41.000Z,40.10
2018-07-03T16:00:12.091Z,40.50
2018-07-03T16:03:52.657Z,40.50
2018-07-03T16:06:32.264Z,40.70
2018-07-03T16:09:09.906Z,40.90
2018-07-03T16:11:39.383Z,41.40
2018-07-03T16:14:08.888Z,41.90
2018-07-03T16:16:37.476Z,42.80
2018-07-03T16:19:12.049Z,43.20
2018-07-03T16:21:40.444Z,43.90
2018-07-03T16:24:09.991Z,43.60
2018-07-03T16:26:38.730Z,43.80
2018-07-03T16:29:09.330Z,43.50
2018-07-03T16:31:37.740Z,43.80
2018-07-03T16:34:06.470Z,43.20
2018-07-03T16:36:34.965Z,43.30
2018-07-03T16:39:05.481Z,41.90
2018-07-03T16:41:33.883Z,41.50
2018-07-03T16:44:02.312Z,41.20
2018-07-03T16:46:30.742Z,41.20
2018-07-03T16:48:59.159Z,41.00
2018-07-03T16:51:27.936Z,40.60
2018-07-03T16:53:56.410Z,40.10
2018-07-03T16:56:25.552Z,40.30
2018-07-03T16:58:53.987Z,39.40
2018-07-03T17:01:22.394Z,39.80
2018-07-03T17:03:50.815Z,39.30
2018-07-03T17:06:19.411Z,39.50
2018-07-03T17:08:47.826Z,40.50
2018-07-03T17:11:16.418Z,41.00
2018-07-03T17:13:45.052Z,40.90
2018-07-03T17:16:13.494Z,40.20
2018-07-03T17:18:47.309Z,40.40
2018-07-03T17:21:15.735Z,41.00
2018-07-03T17:23:44.131Z,40.80
2018-07-03T17:26:12.540Z,41.00
2018-07-03T17:28:41.355Z,41.70
2018-07-03T17:31:09.849Z,42.10
2018-07-03T17:33:38.595Z,42.60
2018-07-03T17:36:07.028Z,43.20
2018-07-03T17:38:35.491Z,43.10
2018-07-03T17:41:15.204Z,43.10
2018-07-03T17:44:07.148Z,43.60
2018-07-03T17:46:35.568Z,44.00
2018-07-03T17:49:04.687Z,44.40
2018-07-03T17:51:33.682Z,45.10
2018-07-03T17:54:02.113Z,45.50
2018-07-03T17:56:30.555Z,46.20
2018-07-03T17:58:59.648Z,46.40
2018-07-03T18:01:28.527Z,46.40
2018-07-03T18:03:56.947Z,46.20
2018-07-03T18:06:25.612Z,46.50
2018-07-03T18:08:54.055Z,47.10
2018-07-03T18:11:23.091Z,47.70
2018-07-03T18:13:52.043Z,48.40
2018-07-03T18:16:20.785Z,48.80
2018-07-03T18:18:55.101Z,49.40
2018-07-03T18:21:23.519Z,49.50
2018-07-03T18:23:51.949Z,49.10
2018-07-03T18:26:20.371Z,48.70
2018-07-03T18:28:49.457Z,48.40
2018-07-03T18:31:17.895Z,48.30
2018-07-03T18:33:46.331Z,48.20
2018-07-03T18:36:14.958Z,48.30
2018-07-03T18:38:43.416Z,49.20
2018-07-03T18:41:11.898Z,50.00
2018-07-03T18:43:40.330Z,50.70
2018-07-03T18:46:08.792Z,51.10
2018-07-03T18:48:37.971Z,51.40
2018-07-03T18:51:07.381Z,51.90
2018-07-03T18:53:36.479Z,52.30
2018-07-03T18:56:06.034Z,52.90
2018-07-03T18:58:36.772Z,53.40
2018-07-03T19:01:05.438Z,53.20
2018-07-03T19:03:33.844Z,53.30
2018-07-03T19:06:02.262Z,53.60
2018-07-03T19:08:30.702Z,53.90
2018-07-03T19:10:59.568Z,54.20
2018-07-03T19:13:27.990Z,54.50
2018-07-03T19:15:56.394Z,54.60
2018-07-03T19:18:24.799Z,54.80
2018-07-03T19:20:53.240Z,55.00
2018-07-03T19:23:21.662Z,55.10
2018-07-03T19:25:50.089Z,55.90
2018-07-03T19:28:18.633Z,55.70
2018-07-03T19:30:47.185Z,55.80
2018-07-03T19:33:15.612Z,56.10
2018-07-03T19:35:44.021Z,55.90
2018-07-03T19:38:12.439Z,56.00
2018-07-03T19:40:40.943Z,55.90
2018-07-03T19:45:46.384Z,56.50
2018-07-03T19:48:15.601Z,56.80
2018-07-03T19:50:44.046Z,57.20
2018-07-03T19:53:13.209Z,57.50
2018-07-03T19:55:41.772Z,57.80
2018-07-03T19:58:10.185Z,58.20
2018-07-03T20:00:38.646Z,58.50
2018-07-03T20:03:07.050Z,58.90
2018-07-03T20:05:36.801Z,59.10
2018-07-03T20:08:06.070Z,59.30
2018-07-03T20:10:34.994Z,59.60
2018-07-03T20:13:03.402Z,59.70
2018-07-03T20:15:31.846Z,60.10
2018-07-03T20:18:00.560Z,60.50
2018-07-03T20:20:29.042Z,60.90
2018-07-03T20:22:57.523Z,61.10
2018-07-03T20:25:25.964Z,61.40
2018-07-03T20:27:54.396Z,61.90
2018-07-03T20:30:22.824Z,62.40
2018-07-03T20:32:51.595Z,62.90
2018-07-03T20:35:19.995Z,62.90
2018-07-03T20:37:52.381Z,63.10
2018-07-03T20:40:21.939Z,63.30
2018-07-03T20:42:51.592Z,63.30
2018-07-03T20:45:21.776Z,63.70
2018-07-03T20:47:50.201Z,64.10
2018-07-03T20:50:19.512Z,64.20
2018-07-03T20:52:48.009Z,65.00
2018-07-03T20:55:17.416Z,65.60
2018-07-03T20:57:46.976Z,66.10
2018-07-03T21:00:15.539Z,66.40
2018-07-03T21:02:43.958Z,66.80
2018-07-03T21:05:12.457Z,67.50
2018-07-03T21:07:40.871Z,67.70
2018-07-03T21:10:09.295Z,67.70
2018-07-03T21:12:37.697Z,67.80
2018-07-03T21:15:06.191Z,68.60
2018-07-03T21:17:34.662Z,68.10
2018-07-03T21:20:03.120Z,68.40
2018-07-03T21:22:31.536Z,68.50
2018-07-03T21:24:59.937Z,68.90
2018-07-03T21:27:28.383Z,69.40
2018-07-03T21:29:56.881Z,69.60
2018-07-03T21:32:25.289Z,70.40
2018-07-03T21:34:53.695Z,71.20
2018-07-03T21:37:22.146Z,71.70
2018-07-03T21:39:50.593Z,72.20
2018-07-03T21:42:19.007Z,72.70
2018-07-03T21:44:47.440Z,73.40
2018-07-03T21:47:16.009Z,73.90
2018-07-03T21:49:44.452Z,74.20
2018-07-03T21:52:12.901Z,74.40
2018-07-03T21:54:41.327Z,74.60
2018-07-03T21:57:09.784Z,74.60
2018-07-03T21:59:38.308Z,74.60
2018-07-03T22:02:06.826Z,74.60
2018-07-03T22:04:35.926Z,75.00
2018-07-03T22:07:04.332Z,75.20
2018-07-03T22:09:32.739Z,75.40
2018-07-03T22:12:01.243Z,75.60
2018-07-03T22:14:29.696Z,75.80
2018-07-03T22:16:58.228Z,75.90
2018-07-03T22:19:26.730Z,76.30
2018-07-03T22:21:55.682Z,76.40
2018-07-03T22:24:24.148Z,76.60
2018-07-03T22:26:52.553Z,76.70
2018-07-03T22:29:21.002Z,76.80
2018-07-03T22:31:49.426Z,77.00
2018-07-03T22:34:17.858Z,77.00
2018-07-03T22:36:46.278Z,77.00
2018-07-03T22:39:14.682Z,76.90
2018-07-03T22:41:43.129Z,76.80
2018-07-03T22:44:11.550Z,76.80
2018-07-03T22:46:40.034Z,77.00
2018-07-03T22:49:08.574Z,77.10
2018-07-03T22:51:37.569Z,77.10
2018-07-03T22:54:05.994Z,77.40
2018-07-03T22:56:35.623Z,77.50
2018-07-03T22:59:04.032Z,77.60
2018-07-03T23:01:32.423Z,77.70
2018-07-03T23:04:00.825Z,77.80
2018-07-03T23:06:29.697Z,77.90
2018-07-03T23:08:58.503Z,78.30
2018-07-03T23:11:26.977Z,78.40
2018-07-03T23:13:55.685Z,78.70
2018-07-03T23:16:24.869Z,79.10
2018-07-03T23:18:53.293Z,79.20
2018-07-03T23:21:21.727Z,79.40
2018-07-03T23:23:50.140Z,79.50
2018-07-03T23:26:18.730Z,79.70
2018-07-03T23:28:47.215Z,79.80
2018-07-03T23:31:15.626Z,80.20
2018-07-03T23:33:44.066Z,80.30
2018-07-03T23:36:12.484Z,80.30
2018-07-03T23:38:40.884Z,80.30
2018-07-03T23:41:09.290Z,80.30
2018-07-03T23:43:37.809Z,80.20
2018-07-03T23:46:05.211Z,80.00
2018-07-03T23:48:44.900Z,79.90
2018-07-03T23:51:24.504Z,79.90
2018-07-03T23:54:04.083Z,79.80
2018-07-03T23:56:43.816Z,79.70
2018-07-03T23:59:23.322Z,79.70
